createdAt,value
2022-07-27T00:02:07.743Z,100583.72
2022-07-27T00:04:35.544Z,100629.31
2022-07-27T00:07:03.433Z,100623.78
2022-07-27T00:09:31.244Z,100577.91
2022-07-27T00:11:58.954Z,100622.94
2022-07-27T00:14:26.765Z,100623.66
2022-07-27T00:16:54.503Z,100622.94
2022-07-27T00:19:24.787Z,100617.56
2022-07-27T00:21:52.544Z,100621.50
2022-07-27T00:24:20.470Z,100617.81
2022-07-27T00:26:48.203Z,100622.34
2022-07-27T00:29:16.133Z,100620.50
2022-07-27T00:31:43.926Z,100623.47
2022-07-27T00:34:11.733Z,100627.16
2022-07-27T00:36:40.782Z,100626.28
2022-07-27T00:39:08.797Z,100622.03
2022-07-27T00:41:37.863Z,100624.00
2022-07-27T00:44:06.868Z,100625.81
2022-07-27T00:46:35.613Z,100620.56
2022-07-27T00:49:03.561Z,100626.09
2022-07-27T00:51:31.308Z,100624.25
2022-07-27T00:54:00.410Z,100629.91
2022-07-27T00:56:28.160Z,100612.75
2022-07-27T00:58:58.155Z,100622.09
2022-07-27T01:01:25.912Z,100625.91
2022-07-27T01:03:53.694Z,100633.84
2022-07-27T01:06:27.351Z,100624.31
2022-07-27T01:09:15.969Z,100624.31
2022-07-27T01:11:45.070Z,100624.31
2022-07-27T01:14:13.598Z,100564.06
2022-07-27T01:16:41.526Z,100629.97
2022-07-27T01:19:09.924Z,100623.75
2022-07-27T01:21:39.290Z,100618.50
2022-07-27T01:24:08.092Z,100624.84
2022-07-27T01:26:36.159Z,100580.66
2022-07-27T01:29:03.887Z,100625.25
2022-07-27T01:31:31.731Z,100508.19
2022-07-27T01:33:59.649Z,100626.13
2022-07-27T01:36:27.410Z,100621.72
2022-07-27T01:38:56.472Z,100622.00
2022-07-27T01:41:24.953Z,100625.50
2022-07-27T01:43:52.694Z,100626.63
2022-07-27T01:46:20.441Z,100616.16
2022-07-27T01:48:48.240Z,100622.25
2022-07-27T01:51:16.165Z,100622.25
2022-07-27T01:53:43.912Z,100612.47
2022-07-27T01:56:13.007Z,100623.22
2022-07-27T01:58:42.151Z,100624.34
2022-07-27T02:01:09.909Z,100623.59
2022-07-27T02:03:37.782Z,100620.91
2022-07-27T02:06:05.593Z,100620.09
2022-07-27T02:08:34.312Z,100623.75
2022-07-27T02:11:19.777Z,100625.72
2022-07-27T02:13:49.513Z,100625.84
2022-07-27T02:16:17.560Z,100631.50
2022-07-27T02:18:45.359Z,100629.63
2022-07-27T02:21:16.509Z,100624.50
2022-07-27T02:23:45.477Z,100614.53
2022-07-27T02:26:13.186Z,100632.56
2022-07-27T02:28:40.917Z,100636.09
2022-07-27T02:31:09.946Z,100637.22
2022-07-27T02:33:37.663Z,100631.13
2022-07-27T02:36:06.012Z,100639.19
2022-07-27T02:38:33.743Z,100633.81
2022-07-27T02:41:01.445Z,100635.75
2022-07-27T02:43:30.258Z,100635.75
2022-07-27T02:45:58.023Z,100645.69
2022-07-27T02:48:27.185Z,100636.88
2022-07-27T02:50:54.889Z,100642.38
2022-07-27T02:53:22.613Z,100645.94
2022-07-27T02:55:50.312Z,100644.22
2022-07-27T02:58:18.042Z,100649.59
2022-07-27T03:00:45.766Z,100640.81
2022-07-27T03:03:13.586Z,100641.81
2022-07-27T03:05:42.629Z,100646.19
2022-07-27T03:08:10.643Z,100639.00
2022-07-27T03:10:38.340Z,100617.53
2022-07-27T03:13:06.475Z,100643.63
2022-07-27T03:15:34.666Z,100647.31
2022-07-27T03:18:02.573Z,100636.56
2022-07-27T03:20:30.281Z,100635.56
2022-07-27T03:22:59.328Z,100632.28
2022-07-27T03:25:27.195Z,100644.75
2022-07-27T03:27:54.888Z,100640.22
2022-07-27T03:30:22.712Z,100647.31
2022-07-27T03:32:50.416Z,100627.53
2022-07-27T03:35:19.669Z,100649.28
2022-07-27T03:37:47.629Z,100644.28
2022-07-27T03:40:16.690Z,100650.53
2022-07-27T03:42:44.578Z,100654.91
2022-07-27T03:45:12.453Z,100644.41
2022-07-27T03:47:40.157Z,100654.03
2022-07-27T03:50:08.498Z,100653.34
2022-07-27T03:52:36.192Z,100657.72
2022-07-27T03:55:03.981Z,100663.94
2022-07-27T03:57:33.111Z,100661.53
2022-07-27T04:00:00.831Z,100654.53
2022-07-27T04:02:41.032Z,100655.41
2022-07-27T04:05:35.936Z,100659.78
2022-07-27T04:08:10.593Z,100668.97
2022-07-27T04:11:04.096Z,100659.09
2022-07-27T04:13:50.753Z,100659.09
2022-07-27T04:16:25.185Z,100654.69
2022-07-27T04:18:58.514Z,100655.66
2022-07-27T04:21:38.353Z,100656.78
2022-07-27T04:24:16.758Z,100658.72
2022-07-27T04:26:44.452Z,100662.28
2022-07-27T04:29:19.955Z,100669.47
2022-07-27T04:31:48.347Z,100661.28
2022-07-27T04:34:16.142Z,100663.97
2022-07-27T04:36:44.704Z,100666.66
2022-07-27T04:39:13.062Z,100671.44
2022-07-27T04:41:41.238Z,100670.25
2022-07-27T04:44:08.993Z,100663.50
2022-07-27T04:46:38.193Z,100658.13
2022-07-27T04:49:06.343Z,100660.81
2022-07-27T04:51:35.393Z,100659.13
2022-07-27T04:54:03.194Z,100659.25
2022-07-27T04:56:30.901Z,100627.66
2022-07-27T04:58:58.643Z,100662.91
2022-07-27T05:01:30.306Z,100663.88
2022-07-27T05:04:04.139Z,100665.13
2022-07-27T05:06:32.865Z,100668.06
2022-07-27T05:09:00.692Z,100670.88
2022-07-27T05:11:28.393Z,100673.69
2022-07-27T05:13:56.112Z,100673.56
2022-07-27T05:16:28.259Z,100676.13
2022-07-27T05:18:56.615Z,100667.94
2022-07-27T05:21:26.037Z,100672.31
2022-07-27T05:23:53.733Z,100675.75
2022-07-27T05:26:23.195Z,100676.72
2022-07-27T05:28:50.919Z,100676.84
2022-07-27T05:31:18.738Z,100669.66
2022-07-27T05:33:49.175Z,100685.53
2022-07-27T05:36:18.306Z,100686.97
2022-07-27T05:38:47.337Z,100689.66
2022-07-27T05:41:15.069Z,100689.84
2022-07-27T05:43:42.773Z,100698.28
2022-07-27T05:46:10.592Z,100704.38
2022-07-27T05:48:38.377Z,100711.06
2022-07-27T05:51:06.119Z,100702.03
2022-07-27T05:53:33.831Z,100712.53
2022-07-27T05:56:02.908Z,100706.75
2022-07-27T05:58:30.803Z,100648.75
2022-07-27T06:00:58.614Z,100717.25
2022-07-27T06:03:26.574Z,100721.50
2022-07-27T06:06:14.449Z,100714.44
2022-07-27T06:08:41.290Z,100725.81
2022-07-27T06:11:10.395Z,100722.13
2022-07-27T06:13:38.441Z,100677.03
2022-07-27T06:16:10.356Z,100680.59
2022-07-27T06:18:38.178Z,100729.72
2022-07-27T06:21:05.944Z,100734.09
2022-07-27T06:23:33.646Z,100730.44
2022-07-27T06:26:01.389Z,100735.22
2022-07-27T06:28:30.429Z,100733.25
2022-07-27T06:30:58.166Z,100736.66
2022-07-27T06:33:29.356Z,100733.84
2022-07-27T06:35:57.741Z,100734.97
2022-07-27T06:38:25.982Z,100730.19
2022-07-27T06:40:53.750Z,100713.97
2022-07-27T06:43:21.796Z,100735.44
2022-07-27T06:45:50.879Z,100735.31
2022-07-27T06:48:18.631Z,100733.47
2022-07-27T06:50:46.391Z,100704.16
2022-07-27T06:53:16.605Z,100727.81
2022-07-27T06:55:48.190Z,100708.19
2022-07-27T06:58:15.894Z,100730.50
2022-07-27T07:00:44.293Z,100734.94
2022-07-27T07:03:13.422Z,100725.38
2022-07-27T07:05:42.933Z,100738.72
2022-07-27T07:08:11.893Z,100735.06
2022-07-27T07:10:40.402Z,100730.50
2022-07-27T07:13:08.293Z,100683.44
2022-07-27T07:15:36.436Z,100720.88
2022-07-27T07:18:04.754Z,100721.72
2022-07-27T07:20:33.857Z,100728.69
2022-07-27T07:23:01.802Z,100687.25
2022-07-27T07:25:29.786Z,100737.22
2022-07-27T07:27:57.646Z,100693.81
2022-07-27T07:30:25.507Z,100739.41
2022-07-27T07:32:53.452Z,100738.03
2022-07-27T07:35:21.236Z,100741.56
2022-07-27T07:37:50.930Z,100737.66
2022-07-27T07:40:43.503Z,100737.28
2022-07-27T07:43:07.155Z,100744.59
2022-07-27T07:45:38.029Z,100699.97
2022-07-27T07:48:15.096Z,100745.91
2022-07-27T07:50:42.828Z,100753.59
2022-07-27T07:53:11.873Z,100748.47
2022-07-27T07:55:42.243Z,100755.38
2022-07-27T07:58:09.956Z,100754.50
2022-07-27T08:00:37.678Z,100749.25
2022-07-27T08:03:05.477Z,100751.94
2022-07-27T08:05:33.465Z,100718.50
2022-07-27T08:08:01.215Z,100752.81
2022-07-27T08:10:30.275Z,100756.56
2022-07-27T08:12:58.042Z,100752.44
2022-07-27T08:15:29.874Z,100755.47
2022-07-27T08:18:03.960Z,100747.78
2022-07-27T08:20:31.705Z,100749.97
2022-07-27T08:22:59.420Z,100749.34
2022-07-27T08:25:27.143Z,100747.97
2022-07-27T08:27:56.526Z,100744.06
2022-07-27T08:30:24.530Z,100729.78
2022-07-27T08:32:53.223Z,100749.91
2022-07-27T08:35:21.121Z,100709.34
2022-07-27T08:37:48.838Z,100742.38
2022-07-27T08:43:06.131Z,100742.38
2022-07-27T08:45:34.149Z,100743.34
2022-07-27T08:48:01.858Z,100739.19
2022-07-27T08:50:30.720Z,100738.06
2022-07-27T08:53:03.259Z,100702.09
2022-07-27T08:55:31.522Z,100747.47
2022-07-27T08:58:03.140Z,100698.56
2022-07-27T09:00:33.062Z,100649.06
2022-07-27T09:03:00.929Z,100756.84
2022-07-27T09:05:37.172Z,100752.19
2022-07-27T09:08:12.354Z,100744.88
2022-07-27T09:10:40.133Z,100725.25
2022-07-27T09:13:21.633Z,100742.75
2022-07-27T09:18:40.033Z,100734.63
2022-07-27T09:21:12.320Z,100754.03
2022-07-27T09:23:40.066Z,100756.47
2022-07-27T09:26:29.600Z,100750.13
2022-07-27T09:28:59.264Z,100739.00
2022-07-27T09:31:28.396Z,100742.28
2022-07-27T09:33:57.525Z,100739.56
2022-07-27T09:36:26.319Z,100745.03
2022-07-27T09:38:58.709Z,100752.78
2022-07-27T09:41:40.076Z,100682.38
2022-07-27T09:46:56.927Z,100741.06
2022-07-27T09:49:28.717Z,100740.78
2022-07-27T09:52:00.012Z,100743.09
2022-07-27T09:54:28.170Z,100744.56
2022-07-27T09:56:59.556Z,100689.56
2022-07-27T09:59:28.126Z,100736.09
2022-07-27T10:01:57.596Z,100740.25
2022-07-27T10:04:25.537Z,100741.66
2022-07-27T10:07:02.825Z,100739.97
2022-07-27T10:09:32.344Z,100738.97
2022-07-27T10:12:00.373Z,100735.28
2022-07-27T10:14:28.071Z,100736.88
2022-07-27T10:16:57.750Z,100734.88
2022-07-27T10:19:29.315Z,100731.09
2022-07-27T10:21:57.276Z,100734.75
2022-07-27T10:24:27.034Z,100733.66
2022-07-27T10:26:55.142Z,100719.94
2022-07-27T10:29:23.541Z,100655.84
2022-07-27T10:32:00.371Z,100720.06
2022-07-27T10:34:35.820Z,100731.09
2022-07-27T10:37:10.621Z,100720.72
2022-07-27T10:39:39.720Z,100722.09
2022-07-27T10:42:35.299Z,100711.88
2022-07-27T10:45:08.433Z,100665.78
2022-07-27T10:47:42.239Z,100717.50
2022-07-27T10:50:24.941Z,100726.69
2022-07-27T10:52:53.852Z,100726.25
2022-07-27T10:55:44.576Z,100738.97
2022-07-27T10:58:43.887Z,100733.72
2022-07-27T11:01:14.740Z,100724.91
2022-07-27T11:03:52.424Z,100723.09
2022-07-27T11:06:37.861Z,100718.72
2022-07-27T11:12:00.905Z,100733.84
2022-07-27T11:14:31.334Z,100733.13
2022-07-27T11:19:54.566Z,100739.25
2022-07-27T11:23:09.061Z,100740.25
2022-07-27T11:25:20.268Z,100728.88
2022-07-27T11:27:49.068Z,100733.25
2022-07-27T11:30:24.196Z,100737.53
2022-07-27T11:32:52.044Z,100727.03
2022-07-27T11:35:21.149Z,100727.03
2022-07-27T11:37:59.441Z,100726.91
2022-07-27T11:43:15.707Z,100673.03
2022-07-27T11:45:43.581Z,100731.31
2022-07-27T11:48:11.628Z,100725.06
2022-07-27T11:50:53.151Z,100735.13
2022-07-27T11:53:21.315Z,100736.09
2022-07-27T11:55:49.822Z,100731.56
2022-07-27T11:58:18.524Z,100731.69
2022-07-27T12:00:46.249Z,100732.56
2022-07-27T12:03:20.609Z,100663.44
2022-07-27T12:05:50.246Z,100727.31
2022-07-27T12:10:37.872Z,100740.91
2022-07-27T12:13:05.629Z,100725.59
2022-07-27T12:15:46.011Z,100730.97
2022-07-27T12:18:14.281Z,100734.38
2022-07-27T12:20:42.026Z,100728.28
2022-07-27T12:23:09.965Z,100731.81
2022-07-27T12:25:39.747Z,100737.09
2022-07-27T12:28:08.390Z,100730.97
2022-07-27T12:30:36.807Z,100730.97
2022-07-27T12:33:06.452Z,100715.72
2022-07-27T12:35:38.126Z,100730.13
2022-07-27T12:38:09.582Z,100726.44
2022-07-27T12:40:46.414Z,100719.94
2022-07-27T12:43:16.667Z,100653.25
2022-07-27T12:45:44.591Z,100697.47
2022-07-27T12:48:13.881Z,100717.97
2022-07-27T12:50:42.165Z,100709.31
2022-07-27T12:53:10.564Z,100709.63
2022-07-27T12:55:38.428Z,100709.38
2022-07-27T12:58:10.184Z,100702.03
2022-07-27T13:00:38.097Z,100650.44
2022-07-27T13:03:06.030Z,100712.25
2022-07-27T13:05:34.026Z,100661.06
2022-07-27T13:08:02.060Z,100697.44
2022-07-27T13:10:29.860Z,100706.13
2022-07-27T13:12:57.987Z,100714.22
2022-07-27T13:15:27.131Z,100710.53
2022-07-27T13:17:54.923Z,100709.56
2022-07-27T13:20:22.911Z,100705.88
2022-07-27T13:22:50.714Z,100696.63
2022-07-27T13:25:18.505Z,100712.13
2022-07-27T13:27:46.446Z,100703.31
2022-07-27T13:30:14.983Z,100706.72
2022-07-27T13:32:44.254Z,100698.06
2022-07-27T13:35:12.694Z,100667.59
2022-07-27T13:37:40.455Z,100707.28
2022-07-27T13:40:09.775Z,100685.47
2022-07-27T13:42:37.625Z,100671.41
2022-07-27T13:45:11.262Z,100701.63
2022-07-27T13:47:39.615Z,100661.59
2022-07-27T13:50:17.054Z,100652.78
2022-07-27T13:52:45.968Z,100702.50
2022-07-27T13:55:14.458Z,100697.97
2022-07-27T13:57:42.263Z,100702.25
2022-07-27T14:00:11.150Z,100690.59
2022-07-27T14:02:39.647Z,100690.47
2022-07-27T14:05:09.645Z,100680.50
2022-07-27T14:07:41.311Z,100688.22
2022-07-27T14:13:32.771Z,100683.16
2022-07-27T14:18:56.684Z,100691.25
2022-07-27T14:21:25.773Z,100695.50
2022-07-27T14:23:53.577Z,100683.72
2022-07-27T14:26:22.335Z,100686.13
2022-07-27T14:28:50.397Z,100676.22
2022-07-27T14:31:18.212Z,100678.50
2022-07-27T14:33:46.895Z,100618.44
2022-07-27T14:36:15.086Z,100671.44
2022-07-27T14:38:44.285Z,100647.31
2022-07-27T14:41:12.114Z,100683.16
2022-07-27T14:46:21.961Z,100652.44
2022-07-27T14:49:05.647Z,100665.53
2022-07-27T14:51:33.729Z,100654.31
2022-07-27T14:54:02.875Z,100653.84
2022-07-27T14:56:30.694Z,100650.72
2022-07-27T14:58:58.454Z,100645.59
2022-07-27T15:01:26.301Z,100658.94
2022-07-27T15:03:55.418Z,100657.25
2022-07-27T15:06:23.246Z,100661.91
2022-07-27T15:08:50.939Z,100669.28
2022-07-27T15:11:20.136Z,100672.13
2022-07-27T15:13:47.851Z,100667.28
2022-07-27T15:16:15.785Z,100668.25
2022-07-27T15:18:43.792Z,100671.22
2022-07-27T15:21:14.118Z,100666.81
2022-07-27T15:23:43.104Z,100666.22
2022-07-27T15:26:11.091Z,100666.78
2022-07-27T15:28:40.235Z,100666.78
2022-07-27T15:31:08.027Z,100666.78
2022-07-27T15:33:35.757Z,100667.91
2022-07-27T15:36:03.500Z,100669.03
2022-07-27T15:38:31.236Z,100676.53
2022-07-27T15:40:59.229Z,100661.31
2022-07-27T15:43:26.935Z,100604.97
2022-07-27T15:45:56.303Z,100657.94
2022-07-27T15:48:26.108Z,100666.22
2022-07-27T15:50:54.689Z,100588.31
2022-07-27T15:53:23.180Z,100668.16
2022-07-27T15:55:52.383Z,100666.59
2022-07-27T15:58:20.175Z,100665.22
2022-07-27T16:00:48.629Z,100663.09
2022-07-27T16:03:18.334Z,100678.88
2022-07-27T16:05:49.476Z,100674.34
2022-07-27T16:08:17.312Z,100664.63
2022-07-27T16:10:45.978Z,100647.31
2022-07-27T16:13:13.802Z,100659.97
2022-07-27T16:15:59.653Z,100682.28
2022-07-27T16:18:28.773Z,100684.13
2022-07-27T16:20:56.575Z,100684.13
2022-07-27T16:23:24.510Z,100679.72
2022-07-27T16:26:10.282Z,100686.94
2022-07-27T16:28:39.696Z,100680.00
2022-07-27T16:31:08.073Z,100680.88
2022-07-27T16:33:37.283Z,100684.38
2022-07-27T16:36:05.905Z,100658.94
2022-07-27T16:38:34.164Z,100683.69
2022-07-27T16:41:03.081Z,100680.09
2022-07-27T16:43:37.212Z,100684.63
2022-07-27T16:46:07.558Z,100676.69
2022-07-27T16:48:41.726Z,100680.25
2022-07-27T16:51:12.901Z,100676.00
2022-07-27T16:53:41.230Z,100672.31
2022-07-27T16:56:09.188Z,100673.44
2022-07-27T16:58:36.946Z,100661.81
2022-07-27T17:01:04.665Z,100665.78
2022-07-27T17:03:32.401Z,100666.31
2022-07-27T17:06:05.663Z,100667.31
2022-07-27T17:08:36.357Z,100667.47
2022-07-27T17:11:06.141Z,100669.16
2022-07-27T17:13:34.924Z,100666.59
2022-07-27T17:16:03.087Z,100664.03
2022-07-27T17:18:35.535Z,100660.81
2022-07-27T17:21:07.494Z,100665.03
2022-07-27T17:23:38.257Z,100663.22
2022-07-27T17:26:07.095Z,100666.03
2022-07-27T17:28:36.805Z,100655.41
2022-07-27T17:31:04.961Z,100658.09
2022-07-27T17:33:32.821Z,100653.53
2022-07-27T17:36:00.714Z,100619.91
2022-07-27T17:38:28.444Z,100650.72
2022-07-27T17:40:57.539Z,100649.75
2022-07-27T17:43:25.235Z,100652.03
2022-07-27T17:45:53.127Z,100652.84
2022-07-27T17:48:21.201Z,100657.28
2022-07-27T17:50:48.968Z,100658.97
2022-07-27T17:53:16.721Z,100650.38
2022-07-27T17:55:44.448Z,100649.81
2022-07-27T17:58:14.380Z,100606.66
2022-07-27T18:00:42.111Z,100655.91
2022-07-27T18:03:12.714Z,100656.50
2022-07-27T18:05:40.460Z,100652.25
2022-07-27T18:08:08.209Z,100653.09
2022-07-27T18:10:38.659Z,100650.53
2022-07-27T18:13:06.575Z,100654.38
2022-07-27T18:15:51.417Z,100649.25
2022-07-27T18:18:20.148Z,100642.28
2022-07-27T18:20:48.309Z,100612.31
2022-07-27T18:23:16.364Z,100618.13
2022-07-27T18:25:44.940Z,100662.69
2022-07-27T18:28:13.987Z,100662.84
2022-07-27T18:30:43.244Z,100666.63
2022-07-27T18:33:11.010Z,100661.53
2022-07-27T18:35:39.014Z,100666.19
2022-07-27T18:38:08.722Z,100620.59
2022-07-27T18:40:36.449Z,100662.94
2022-07-27T18:43:04.814Z,100609.81
2022-07-27T18:45:34.487Z,100665.19
2022-07-27T18:48:03.940Z,100671.72
2022-07-27T18:50:35.608Z,100673.69
2022-07-27T18:53:07.045Z,100676.50
2022-07-27T18:55:34.817Z,100671.25
2022-07-27T18:58:02.552Z,100676.66
2022-07-27T19:00:30.556Z,100682.16
2022-07-27T19:02:58.683Z,100677.78
2022-07-27T19:05:32.587Z,100684.13
2022-07-27T19:08:12.993Z,100691.50
2022-07-27T19:10:41.567Z,100688.09
2022-07-27T19:13:09.290Z,100692.63
2022-07-27T19:15:37.161Z,100691.06
2022-07-27T19:18:05.019Z,100695.72
2022-07-27T19:20:35.803Z,100706.50
2022-07-27T19:23:03.534Z,100704.78
2022-07-27T19:25:31.419Z,100706.91
2022-07-27T19:27:59.903Z,100710.72
2022-07-27T19:30:27.768Z,100709.16
2022-07-27T19:32:56.396Z,100716.50
2022-07-27T19:35:24.099Z,100728.41
2022-07-27T19:37:53.246Z,100724.38
2022-07-27T19:43:08.678Z,100744.97
2022-07-27T19:45:36.659Z,100740.81
2022-07-27T19:48:05.594Z,100742.66
2022-07-27T19:50:33.730Z,100744.63
2022-07-27T19:53:02.833Z,100742.94
2022-07-27T19:55:30.598Z,100751.00
2022-07-27T19:57:58.292Z,100748.44
2022-07-27T20:00:26.033Z,100752.09
2022-07-27T20:02:53.853Z,100754.78
2022-07-27T20:05:21.659Z,100760.31
2022-07-27T20:07:49.375Z,100755.41
2022-07-27T20:10:18.452Z,100759.59
2022-07-27T20:12:46.157Z,100757.06
2022-07-27T20:15:13.889Z,100757.19
2022-07-27T20:17:41.641Z,100752.72
2022-07-27T20:20:10.624Z,100764.50
2022-07-27T20:22:39.204Z,100764.63
2022-07-27T20:25:08.235Z,100694.78
2022-07-27T20:27:37.425Z,100763.19
2022-07-27T20:30:06.062Z,100766.00
2022-07-27T20:32:33.784Z,100773.09
2022-07-27T20:35:01.514Z,100767.97
2022-07-27T20:37:29.362Z,100770.78
2022-07-27T20:39:57.106Z,100775.31
2022-07-27T20:42:24.803Z,100736.91
2022-07-27T20:44:53.987Z,100777.28
2022-07-27T20:47:21.726Z,100766.78
2022-07-27T20:49:49.470Z,100776.69
2022-07-27T20:52:17.245Z,100777.69
2022-07-27T20:54:45.002Z,100786.72
2022-07-27T20:57:12.782Z,100781.59
2022-07-27T20:59:40.524Z,100787.84
2022-07-27T21:02:09.655Z,100779.03
2022-07-27T21:04:37.443Z,100782.84
2022-07-27T21:07:05.201Z,100785.66
2022-07-27T21:09:32.893Z,100781.41
2022-07-27T21:12:00.632Z,100786.66
2022-07-27T21:14:28.337Z,100789.59
2022-07-27T21:16:56.115Z,100799.75
2022-07-27T21:19:25.827Z,100795.38
2022-07-27T21:21:53.571Z,100793.78
2022-07-27T21:24:22.788Z,100795.63
2022-07-27T21:26:51.508Z,100798.44
2022-07-27T21:29:19.287Z,100797.72
2022-07-27T21:31:49.237Z,100710.59
2022-07-27T21:34:19.426Z,100755.03
2022-07-27T21:36:48.683Z,100744.88
2022-07-27T21:39:16.472Z,100800.66
2022-07-27T21:41:44.223Z,100803.22
2022-07-27T21:44:12.213Z,100799.91
2022-07-27T21:46:40.139Z,100797.72
2022-07-27T21:49:08.129Z,100804.91
2022-07-27T21:51:36.367Z,100797.72
2022-07-27T21:54:05.775Z,100802.22
2022-07-27T21:56:41.943Z,100797.97
2022-07-27T21:59:10.846Z,100806.66
2022-07-27T22:01:38.716Z,100777.38
2022-07-27T22:04:06.854Z,100793.59
2022-07-27T22:06:34.636Z,100812.53
2022-07-27T22:09:02.341Z,100770.63
2022-07-27T22:11:31.423Z,100803.72
2022-07-27T22:13:59.132Z,100809.09
2022-07-27T22:16:26.967Z,100808.38
2022-07-27T22:18:55.372Z,100781.91
2022-07-27T22:21:23.117Z,100806.91
2022-07-27T22:23:50.832Z,100767.75
2022-07-27T22:26:18.550Z,100808.88
2022-07-27T22:28:47.614Z,100811.56
2022-07-27T22:31:21.696Z,100814.50
2022-07-27T22:33:50.941Z,100810.97
2022-07-27T22:36:18.687Z,100783.72
2022-07-27T22:38:46.439Z,100799.00
2022-07-27T22:41:14.183Z,100809.75
2022-07-27T22:43:42.036Z,100819.53
2022-07-27T22:46:11.171Z,100767.28
2022-07-27T22:48:39.022Z,100814.38
2022-07-27T22:51:07.735Z,100811.81
2022-07-27T22:53:35.485Z,100816.84
2022-07-27T22:56:03.214Z,100818.53
2022-07-27T22:58:30.916Z,100771.34
2022-07-27T23:00:59.900Z,100823.91
2022-07-27T23:03:29.141Z,100822.22
2022-07-27T23:05:56.875Z,100823.56
2022-07-27T23:08:24.565Z,100830.06
2022-07-27T23:10:52.337Z,100831.78
2022-07-27T23:13:20.488Z,100823.69
2022-07-27T23:15:48.442Z,100749.75
2022-07-27T23:18:16.639Z,100826.50
2022-07-27T23:20:45.841Z,100827.50
2022-07-27T23:23:16.647Z,100827.13
2022-07-27T23:25:45.009Z,100833.97
2022-07-27T23:28:12.712Z,100825.69
2022-07-27T23:30:40.435Z,100770.13
2022-07-27T23:33:08.137Z,100761.72
2022-07-27T23:35:35.933Z,100825.94
2022-07-27T23:38:04.988Z,100826.06
2022-07-27T23:40:32.782Z,100829.69
2022-07-27T23:43:00.555Z,100817.38
2022-07-27T23:45:28.283Z,100748.88
2022-07-27T23:47:56.056Z,100821.16
2022-07-27T23:50:24.409Z,100826.31
2022-07-27T23:52:52.198Z,100822.75
2022-07-27T23:55:21.266Z,100822.75
2022-07-27T23:57:49.075Z,100834.59
